Time;durP1;ratioP1;P1;durP2;ratioP2;P2;SDS_P1;SDS_P2;PMS_P1;PMS_P2;Temp;Humidity;BMP_temperature;BMP_pressure;BME280_temperature;BME280_humidity;BME280_pressure;Samples;Min_cycle;Max_cycle;Signal;HPM_P1;HPM_P2
2022/03/05 00:00:00;;;;;;;;;;;;;;;1.00;67.42;102011.69;4839993;29;20084;-77
2022/03/05 00:02:25;;;;;;;;;;;;;;;0.98;65.93;102011.75;4839964;29;19927;-77
2022/03/05 00:04:51;;;;;;;;;;;;;;;0.96;66.93;102008.34;4839570;29;19943;-78
2022/03/05 00:07:17;;;;;;;;;;;;;;;0.96;66.12;102003.25;4839858;29;19921;-78
2022/03/05 00:09:42;;;;;;;;;;;;;;;0.94;67.57;102005.00;4839672;29;20401;-77
2022/03/05 00:12:07;;;;;;;;;;;;;;;0.91;67.16;102010.16;4840318;29;19916;-76
2022/03/05 00:14:32;;;;;;;;;;;;;;;0.89;67.13;102011.94;4838876;29;19916;-77
2022/03/05 00:17:01;;;;;;;;;;;;;;;0.85;67.38;102015.41;4822994;29;19961;-77
2022/03/05 00:19:26;;;;;;;;;;;;;;;0.80;67.49;102009.56;4839709;29;19920;-78
2022/03/05 00:21:51;;;;;;;;;;;;;;;0.76;68.14;102000.31;4839568;29;19920;-78
2022/03/05 00:24:16;;;;;;;;;;;;;;;0.72;67.79;102003.78;4839551;29;19920;-78
2022/03/05 00:26:42;;;;;;;;;;;;;;;0.67;68.53;102006.44;4831131;29;19986;-78
2022/03/05 00:29:07;;;;;;;;;;;;;;;0.64;67.34;102013.34;4853863;29;19920;-78
2022/03/05 00:31:33;;;;;;;;;;;;;;;0.61;68.05;102015.94;4842529;29;19952;-77
2022/03/05 00:33:58;;;;;;;;;;;;;;;0.57;68.18;102009.22;4839728;29;20284;-77
2022/03/05 00:36:23;;;;;;;;;;;;;;;0.56;68.04;102012.66;4839957;29;19912;-77
2022/03/05 00:38:48;;;;;;;;;;;;;;;0.51;68.37;102002.53;4850873;29;19973;-78
2022/03/05 00:41:13;;;;;;;;;;;;;;;0.50;67.65;102011.91;4822562;29;19920;-77
2022/03/05 00:43:39;;;;;;;;;;;;;;;0.50;67.29;101998.31;4840118;29;20388;-77
2022/03/05 00:46:04;;;;;;;;;;;;;;;0.47;67.28;102009.44;4852902;29;19920;-78
2022/03/05 00:48:29;;;;;;;;;;;;;;;0.47;68.84;102001.78;4850462;29;19996;-77
2022/03/05 00:50:54;;;;;;;;;;;;;;;0.46;69.83;101999.22;4852958;29;20280;-77
2022/03/05 00:53:21;;;;;;;;;;;;;;;0.43;68.90;101997.59;4857516;29;20277;-77
2022/03/05 00:55:47;;;;;;;;;;;;;;;0.42;69.02;102000.19;4857799;29;19923;-77
2022/03/05 00:58:13;;;;;;;;;;;;;;;0.39;67.43;101990.88;4857620;29;19916;-78
2022/03/05 01:00:39;;;;;;;;;;;;;;;0.35;69.67;102009.69;4857672;29;19924;-77
2022/03/05 01:03:04;;;;;;;;;;;;;;;0.33;68.41;102000.38;4854888;29;19972;-77
2022/03/05 01:05:29;;;;;;;;;;;;;;;0.32;67.45;101994.41;4841130;29;19917;-77
2022/03/05 01:07:55;;;;;;;;;;;;;;;0.31;67.84;101997.84;4839959;29;19976;-77
2022/03/05 01:10:20;;;;;;;;;;;;;;;0.28;69.37;102000.44;4838615;29;19917;-78
2022/03/05 01:12:45;;;;;;;;;;;;;;;0.25;67.66;102003.06;4823459;29;19961;-78
2022/03/05 01:15:10;;;;;;;;;;;;;;;0.23;67.42;101995.47;4843457;29;19949;-77
2022/03/05 01:17:36;;;;;;;;;;;;;;;0.22;67.81;101998.03;4842660;29;19912;-78
2022/03/05 01:20:01;;;;;;;;;;;;;;;0.20;68.38;101992.13;4844029;29;20646;-78
2022/03/05 01:22:27;;;;;;;;;;;;;;;0.17;67.14;101997.25;4843015;29;19921;-77
2022/03/05 01:24:52;;;;;;;;;;;;;;;0.16;67.15;101987.94;4843917;29;19927;-77
2022/03/05 01:27:18;;;;;;;;;;;;;;;0.15;66.44;101993.91;4843154;29;19924;-76
2022/03/05 01:29:43;;;;;;;;;;;;;;;0.15;66.60;101997.31;4847647;29;20003;-77
2022/03/05 01:32:08;;;;;;;;;;;;;;;0.14;67.12;101992.25;4861953;29;19927;-78
2022/03/05 01:34:34;;;;;;;;;;;;;;;0.13;66.74;101988.84;4861082;29;20010;-77
2022/03/05 01:36:59;;;;;;;;;;;;;;;0.13;67.71;101982.91;4852618;29;19916;-77
2022/03/05 01:39:24;;;;;;;;;;;;;;;0.11;66.38;101985.47;4843586;29;19920;-78
2022/03/05 01:41:51;;;;;;;;;;;;;;;0.12;66.84;101981.25;4856696;29;19920;-77
2022/03/05 01:44:18;;;;;;;;;;;;;;;0.12;67.15;101987.19;4854833;29;20368;-77
2022/03/05 01:46:43;;;;;;;;;;;;;;;0.10;67.97;101980.41;4848058;29;20374;-77
2022/03/05 01:49:09;;;;;;;;;;;;;;;0.07;67.76;101981.31;4842969;29;19920;-77
2022/03/05 01:51:35;;;;;;;;;;;;;;;0.05;67.02;101984.75;4842372;29;19920;-77
2022/03/05 01:54:01;;;;;;;;;;;;;;;0.02;67.45;101979.72;4860136;29;19916;-77
2022/03/05 01:56:27;;;;;;;;;;;;;;;0.00;67.39;101987.41;4854127;29;20276;-78
2022/03/05 01:58:52;;;;;;;;;;;;;;;-0.02;68.97;101984.88;4828903;29;19957;-78
2022/03/05 02:01:22;;;;;;;;;;;;;;;-0.04;68.16;101991.72;4842636;29;19928;-77
2022/03/05 02:03:47;;;;;;;;;;;;;;;-0.05;67.92;102000.25;4824578;29;19925;-77
2022/03/05 02:06:13;;;;;;;;;;;;;;;-0.07;69.00;101996.88;4859550;29;19916;-77
2022/03/05 02:08:38;;;;;;;;;;;;;;;-0.10;67.86;101996.94;4859268;29;19931;-78
2022/03/05 02:11:03;;;;;;;;;;;;;;;-0.11;67.28;101990.16;4857314;29;19945;-78
2022/03/05 02:13:29;;;;;;;;;;;;;;;-0.13;67.47;101991.88;4848382;29;19999;-77
2022/03/05 02:15:57;;;;;;;;;;;;;;;-0.17;70.49;101992.81;4860460;29;19912;-77
2022/03/05 02:18:23;;;;;;;;;;;;;;;-0.22;69.88;101986.97;4847065;29;19955;-78
2022/03/05 02:20:49;;;;;;;;;;;;;;;-0.24;67.60;101998.88;4839594;29;20370;-78
2022/03/05 02:23:14;;;;;;;;;;;;;;;-0.27;67.97;101999.78;4839997;29;19923;-78
2022/03/05 02:25:49;;;;;;;;;;;;;;;-0.28;68.55;101992.19;4859268;29;19920;-78
2022/03/05 02:28:14;;;;;;;;;;;;;;;-0.32;68.27;101985.44;4859513;29;20400;-78
2022/03/05 02:30:40;;;;;;;;;;;;;;;-0.34;68.89;101982.09;4855931;29;19932;-77
2022/03/05 02:33:05;;;;;;;;;;;;;;;-0.35;67.94;101986.31;4853562;29;20365;-78
2022/03/05 02:35:30;;;;;;;;;;;;;;;-0.35;67.36;101983.78;4859703;29;20357;-77
2022/03/05 02:37:55;;;;;;;;;;;;;;;-0.36;68.31;101978.72;4854572;29;20369;-78
2022/03/05 02:40:20;;;;;;;;;;;;;;;-0.37;68.65;101977.03;4840939;29;19916;-77
2022/03/05 02:42:46;;;;;;;;;;;;;;;-0.39;68.56;101978.78;4839893;29;19920;-78
2022/03/05 02:45:11;;;;;;;;;;;;;;;-0.40;67.87;101974.53;4844710;29;19965;-78
2022/03/05 02:47:36;;;;;;;;;;;;;;;-0.41;68.75;101972.84;4857306;29;19920;-77
2022/03/05 02:50:01;;;;;;;;;;;;;;;-0.43;68.22;101972.88;4850810;29;19940;-77
2022/03/05 02:52:26;;;;;;;;;;;;;;;-0.45;67.99;101964.44;4848064;29;20301;-77
2022/03/05 02:54:52;;;;;;;;;;;;;;;-0.47;68.60;101965.31;4854863;29;20007;-77
2022/03/05 02:57:17;;;;;;;;;;;;;;;-0.51;68.58;101959.44;4847351;29;19963;-77
2022/03/05 02:59:42;;;;;;;;;;;;;;;-0.54;67.53;101967.13;4858993;29;19931;-78
2022/03/05 03:02:07;;;;;;;;;;;;;;;-0.54;68.78;101965.41;4858128;29;19923;-77
2022/03/05 03:04:32;;;;;;;;;;;;;;;-0.56;68.65;101967.16;4842317;29;20285;-77
2022/03/05 03:06:58;;;;;;;;;;;;;;;-0.58;69.42;101962.94;4855406;29;20266;-78
2022/03/05 03:09:23;;;;;;;;;;;;;;;-0.60;69.90;101970.63;4840633;29;20354;-77
2022/03/05 03:11:48;;;;;;;;;;;;;;;-0.61;69.26;101965.56;4840542;29;20354;-78
2022/03/05 03:14:13;;;;;;;;;;;;;;;-0.65;69.13;101967.31;4840547;29;19916;-78
2022/03/05 03:16:40;;;;;;;;;;;;;;;-0.70;69.28;101958.91;4841407;29;19984;-78
2022/03/05 03:19:05;;;;;;;;;;;;;;;-0.75;69.53;101947.94;4831673;29;19943;-77
2022/03/05 03:21:30;;;;;;;;;;;;;;;-0.75;68.53;101955.59;4835432;29;19995;-77
2022/03/05 03:23:55;;;;;;;;;;;;;;;-0.76;68.89;101948.81;4840244;29;20274;-78
2022/03/05 03:26:21;;;;;;;;;;;;;;;-0.75;68.35;101960.69;4823935;29;19961;-78
2022/03/05 03:28:46;;;;;;;;;;;;;;;-0.74;68.27;101959.84;4841716;29;20258;-77
2022/03/05 03:31:11;;;;;;;;;;;;;;;-0.75;68.02;101970.03;4855960;29;20341;-77
2022/03/05 03:33:36;;;;;;;;;;;;;;;-0.75;68.33;101970.88;4859002;29;19924;-77
2022/03/05 03:36:02;;;;;;;;;;;;;;;-0.76;68.46;101971.75;4857696;29;20361;-78
2022/03/05 03:38:27;;;;;;;;;;;;;;;-0.79;68.83;101974.34;4843781;29;20221;-77
2022/03/05 03:40:52;;;;;;;;;;;;;;;-0.81;68.67;101968.41;4844758;29;19964;-78
2022/03/05 03:43:17;;;;;;;;;;;;;;;-0.83;69.32;101968.44;4848447;29;20340;-78
2022/03/05 03:45:43;;;;;;;;;;;;;;;-0.83;70.07;101967.63;4840413;29;19928;-77
2022/03/05 03:48:08;;;;;;;;;;;;;;;-0.85;68.52;101972.75;4840206;29;19920;-77
2022/03/05 03:50:34;;;;;;;;;;;;;;;-0.87;69.87;101976.16;4846699;29;19923;-77
2022/03/05 03:52:59;;;;;;;;;;;;;;;-0.90;70.55;101976.22;4840501;29;20357;-77
2022/03/05 03:55:24;;;;;;;;;;;;;;;-0.94;70.68;101980.50;4839156;29;19916;-77
2022/03/05 03:57:50;;;;;;;;;;;;;;;-0.98;70.99;101983.13;4850193;29;19967;-77
2022/03/05 04:00:16;;;;;;;;;;;;;;;-0.99;70.95;101978.91;4858292;29;19989;-77
2022/03/05 04:02:42;;;;;;;;;;;;;;;-1.02;70.00;101971.31;4831695;29;19921;-78
2022/03/05 04:05:07;;;;;;;;;;;;;;;-1.05;70.64;101979.84;4839665;29;19931;-77
2022/03/05 04:10:17;;;;;;;;;;;;;;;-1.12;71.47;101971.44;4857085;29;20285;-77
2022/03/05 04:12:42;;;;;;;;;;;;;;;-1.14;70.53;101972.34;4851327;29;20363;-77
2022/03/05 04:15:07;;;;;;;;;;;;;;;-1.14;70.90;101972.34;4853681;29;19916;-77
2022/03/05 04:17:33;;;;;;;;;;;;;;;-1.16;71.92;101964.72;4856828;29;19963;-77
2022/03/05 04:19:58;;;;;;;;;;;;;;;-1.18;71.32;101965.63;4885324;24;19999;-77
2022/03/05 04:22:23;;;;;;;;;;;;;;;-1.20;71.24;101972.44;4891281;29;19919;-77
2022/03/05 04:24:48;;;;;;;;;;;;;;;-1.22;70.95;101972.44;4895765;29;20245;-78
2022/03/05 04:27:14;;;;;;;;;;;;;;;-1.26;72.69;101973.38;4895837;29;20010;-78
2022/03/05 04:29:39;;;;;;;;;;;;;;;-1.31;72.21;101980.22;4878366;29;19922;-78
2022/03/05 04:32:05;;;;;;;;;;;;;;;-1.36;71.92;101982.00;4895182;29;19959;-77
2022/03/05 04:34:30;;;;;;;;;;;;;;;-1.38;71.37;101989.66;4879903;29;19919;-77
2022/03/05 04:36:55;;;;;;;;;;;;;;;-1.41;70.92;101988.84;4878474;29;19959;-77
2022/03/05 04:39:21;;;;;;;;;;;;;;;-1.43;70.53;101995.66;4878268;29;19978;-78
2022/03/05 04:41:46;;;;;;;;;;;;;;;-1.49;71.46;101991.50;4895148;29;19971;-77
2022/03/05 04:44:11;;;;;;;;;;;;;;;-1.52;71.08;101993.22;4874563;29;19975;-77
2022/03/05 04:46:36;;;;;;;;;;;;;;;-1.54;72.43;101995.78;4892599;29;19916;-78
2022/03/05 04:49:03;;;;;;;;;;;;;;;-1.56;72.30;101999.19;4894922;29;19919;-77
2022/03/05 04:51:28;;;;;;;;;;;;;;;-1.59;73.23;102001.81;4895072;29;20407;-78
2022/03/05 04:53:53;;;;;;;;;;;;;;;-1.61;72.31;102006.88;4881884;29;19916;-77
2022/03/05 04:56:19;;;;;;;;;;;;;;;-1.63;71.75;101999.28;4875967;29;19912;-77
2022/03/05 04:58:44;;;;;;;;;;;;;;;-1.62;72.94;102006.03;4876638;29;20420;-77
2022/03/05 05:01:10;;;;;;;;;;;;;;;-1.62;72.43;101995.03;4858812;29;20332;-77
2022/03/05 05:03:35;;;;;;;;;;;;;;;-1.63;72.29;102009.44;4875989;29;19919;-77
2022/03/05 05:06:00;;;;;;;;;;;;;;;-1.66;72.52;102001.88;4876094;29;19926;-77
2022/03/05 05:08:25;;;;;;;;;;;;;;;-1.67;73.79;102012.03;4875952;29;20356;-77
2022/03/05 05:10:50;;;;;;;;;;;;;;;-1.69;72.20;102009.53;4876194;29;20379;-77
2022/03/05 05:13:16;;;;;;;;;;;;;;;-1.71;72.03;102010.41;4875887;29;20261;-77
2022/03/05 05:15:41;;;;;;;;;;;;;;;-1.75;72.41;102019.78;4876097;29;19951;-78
2022/03/05 05:18:06;;;;;;;;;;;;;;;-1.77;73.51;102021.50;4859080;29;20368;-78
2022/03/05 05:20:31;;;;;;;;;;;;;;;-1.79;73.40;102017.28;4875870;29;20281;-77
2022/03/05 05:22:57;;;;;;;;;;;;;;;-1.82;73.71;102018.16;4856285;29;19916;-77
2022/03/05 05:25:22;;;;;;;;;;;;;;;-1.85;73.05;102013.09;4859583;29;20349;-77
2022/03/05 05:27:47;;;;;;;;;;;;;;;-1.85;74.64;102017.34;4875818;29;19951;-77
2022/03/05 05:30:12;;;;;;;;;;;;;;;-1.87;74.29;102019.91;4875418;29;19986;-77
2022/03/05 05:32:38;;;;;;;;;;;;;;;-1.91;74.49;102013.16;4859119;29;20055;-77
2022/03/05 05:35:03;;;;;;;;;;;;;;;-1.95;75.06;102021.69;4875492;29;19920;-77
2022/03/05 05:37:28;;;;;;;;;;;;;;;-1.95;72.58;102021.69;4875765;29;19923;-77
2022/03/05 05:39:54;;;;;;;;;;;;;;;-2.06;74.45;102009.09;4875728;29;19916;-79
2022/03/05 05:42:19;;;;;;;;;;;;;;;-1.98;75.23;102026.81;4875551;29;19916;-77
2022/03/05 05:44:44;;;;;;;;;;;;;;;-2.01;74.70;102021.75;4875825;29;19919;-77
2022/03/05 05:47:09;;;;;;;;;;;;;;;-2.02;73.81;102014.97;4875661;29;19927;-77
2022/03/05 05:49:35;;;;;;;;;;;;;;;-2.01;74.38;102022.59;4875676;29;19920;-77
2022/03/05 05:52:00;;;;;;;;;;;;;;;-2.01;75.53;102006.50;4875525;29;20002;-77
2022/03/05 05:54:26;;;;;;;;;;;;;;;-2.01;74.54;102014.13;4875273;29;19915;-77
2022/03/05 05:56:51;;;;;;;;;;;;;;;-2.02;74.97;102020.91;4858685;29;19918;-78
2022/03/05 05:59:16;;;;;;;;;;;;;;;-2.01;75.02;102019.19;4859725;29;20018;-77
2022/03/05 06:01:41;;;;;;;;;;;;;;;-2.02;73.23;102015.81;4879279;29;19970;-77
2022/03/05 06:04:07;;;;;;;;;;;;;;;-2.14;74.77;102004.06;4879453;29;19915;-77
2022/03/05 06:06:32;;;;;;;;;;;;;;;-2.01;74.42;102011.56;4878472;29;20274;-77
2022/03/05 06:08:57;;;;;;;;;;;;;;;-2.00;74.11;102013.28;4878838;29;19947;-77
2022/03/05 06:11:22;;;;;;;;;;;;;;;-1.99;74.11;102014.97;4878320;29;19985;-77
2022/03/05 06:13:48;;;;;;;;;;;;;;;-1.98;73.69;102006.47;4878743;29;20352;-77
2022/03/05 06:16:13;;;;;;;;;;;;;;;-1.94;73.83;102013.22;4879709;29;20428;-77
2022/03/05 06:18:38;;;;;;;;;;;;;;;-1.94;73.56;102018.31;4878127;29;19916;-77
2022/03/05 06:21:05;;;;;;;;;;;;;;;-1.93;74.59;102019.97;4860977;29;19919;-75
2022/03/05 06:23:31;;;;;;;;;;;;;;;-1.96;75.28;102020.00;4878895;29;20428;-77
2022/03/05 06:25:56;;;;;;;;;;;;;;;-2.00;76.16;102018.38;4878975;29;20006;-77
2022/03/05 06:28:21;;;;;;;;;;;;;;;-2.02;75.69;102022.59;4876968;29;20238;-77
2022/03/05 06:30:47;;;;;;;;;;;;;;;-2.05;75.27;102015.03;4878884;29;19923;-77
2022/03/05 06:33:12;;;;;;;;;;;;;;;-2.05;74.18;102022.66;4861786;29;20002;-77
2022/03/05 06:35:37;;;;;;;;;;;;;;;-2.05;74.54;102026.03;4879477;29;19957;-77
2022/03/05 06:38:02;;;;;;;;;;;;;;;-2.03;75.12;102018.38;4861492;29;19923;-77
2022/03/05 06:40:28;;;;;;;;;;;;;;;-2.01;74.30;102026.81;4879407;29;19956;-77
2022/03/05 06:42:55;;;;;;;;;;;;;;;-2.00;75.07;102018.38;4873108;29;19927;-77
2022/03/05 06:45:20;;;;;;;;;;;;;;;-1.99;74.50;102025.13;4861300;29;19919;-77
2022/03/05 06:47:46;;;;;;;;;;;;;;;-1.97;75.31;102028.50;4877583;29;19939;-77
2022/03/05 06:50:11;;;;;;;;;;;;;;;-2.01;75.27;102016.66;4878138;29;19960;-77
2022/03/05 06:52:36;;;;;;;;;;;;;;;-1.96;74.90;102031.00;4877559;29;20014;-77
2022/03/05 06:55:03;;;;;;;;;;;;;;;-1.94;74.30;102033.56;4877564;29;20421;-77
2022/03/05 06:57:29;;;;;;;;;;;;;;;-1.94;75.04;102036.09;4870391;29;19916;-77
2022/03/05 06:59:54;;;;;;;;;;;;;;;-1.94;74.51;102039.47;4868851;29;19939;-77
2022/03/05 07:02:19;;;;;;;;;;;;;;;-1.92;74.74;102037.75;4864718;29;19968;-77
2022/03/05 07:04:45;;;;;;;;;;;;;;;-1.90;73.98;102045.34;4859241;29;19919;-77
2022/03/05 07:07:10;;;;;;;;;;;;;;;-1.87;74.76;102040.25;4864685;29;19977;-77
2022/03/05 07:09:35;;;;;;;;;;;;;;;-1.86;75.07;102041.94;4870138;29;19916;-78
2022/03/05 07:12:00;;;;;;;;;;;;;;;-1.84;75.58;102045.28;4867090;29;19931;-77
2022/03/05 07:14:26;;;;;;;;;;;;;;;-1.81;75.24;102045.28;4877519;29;20361;-77
2022/03/05 07:16:51;;;;;;;;;;;;;;;-1.79;75.22;102048.63;4877313;29;20371;-78
2022/03/05 07:19:17;;;;;;;;;;;;;;;-1.77;76.72;102052.03;4868379;29;20396;-78
2022/03/05 07:21:42;;;;;;;;;;;;;;;-1.75;75.93;102049.44;4860855;29;19924;-78
2022/03/05 07:24:08;;;;;;;;;;;;;;;-1.74;75.96;102057.06;4877490;29;20368;-77
2022/03/05 07:26:33;;;;;;;;;;;;;;;-1.72;75.80;102050.28;4855925;29;19924;-78
2022/03/05 07:28:59;;;;;;;;;;;;;;;-1.71;75.09;102057.03;4864438;29;20325;-77
2022/03/05 07:31:24;;;;;;;;;;;;;;;-1.70;75.32;102061.25;4854835;29;19916;-77
2022/03/05 07:33:49;;;;;;;;;;;;;;;-1.68;76.50;102056.97;4864499;29;19958;-78
2022/03/05 07:36:14;;;;;;;;;;;;;;;-1.65;76.54;102067.13;4868367;29;19922;-77
2022/03/05 07:38:43;;;;;;;;;;;;;;;-1.63;75.35;102065.41;4865187;29;20405;-77
2022/03/05 07:41:08;;;;;;;;;;;;;;;-1.57;76.20;102053.50;4865940;29;19955;-78
2022/03/05 07:43:33;;;;;;;;;;;;;;;-1.54;76.07;102063.63;4861429;29;20341;-77
2022/03/05 07:45:58;;;;;;;;;;;;;;;-1.51;75.83;102069.53;4859896;29;19920;-77
2022/03/05 07:48:25;;;;;;;;;;;;;;;-1.47;74.66;102061.00;4873535;29;20360;-78
2022/03/05 07:50:51;;;;;;;;;;;;;;;-1.41;74.71;102067.72;4865527;29;19920;-77
2022/03/05 07:53:17;;;;;;;;;;;;;;;-1.34;74.57;102071.88;4856681;29;19966;-78
2022/03/05 07:55:42;;;;;;;;;;;;;;;-1.29;75.32;102065.03;4858036;29;20349;-78
2022/03/05 07:58:08;;;;;;;;;;;;;;;-1.25;75.16;102066.66;4859249;29;19942;-77
2022/03/05 08:00:33;;;;;;;;;;;;;;;-1.19;75.46;102071.69;4863125;29;19919;-78
2022/03/05 08:02:58;;;;;;;;;;;;;;;-1.15;75.25;102077.56;4866186;29;20272;-78
2022/03/05 08:05:24;;;;;;;;;;;;;;;-1.10;75.54;102076.63;4857942;29;20283;-77
2022/03/05 08:07:49;;;;;;;;;;;;;;;-1.06;75.75;102077.44;4865045;29;19927;-78
2022/03/05 08:10:15;;;;;;;;;;;;;;;-0.99;74.65;102078.22;4855966;29;20420;-77
2022/03/05 08:12:40;;;;;;;;;;;;;;;-0.95;75.53;102084.94;4867259;29;19926;-77
2022/03/05 08:15:06;;;;;;;;;;;;;;;-0.89;75.08;102079.78;4881611;29;19923;-77
2022/03/05 08:17:31;;;;;;;;;;;;;;;-0.82;75.36;102081.34;4858846;29;19920;-79
2022/03/05 08:19:56;;;;;;;;;;;;;;;-0.75;75.53;102084.66;4884897;29;19947;-78
2022/03/05 08:22:22;;;;;;;;;;;;;;;-0.68;75.93;102089.66;4895241;29;19918;-77
2022/03/05 08:24:47;;;;;;;;;;;;;;;-0.61;75.42;102086.16;4895153;29;19912;-78
2022/03/05 08:27:13;;;;;;;;;;;;;;;-0.52;75.79;102089.41;4895073;29;20390;-77
2022/03/05 08:29:38;;;;;;;;;;;;;;;-0.44;76.05;102082.50;4885876;29;19972;-79
2022/03/05 08:32:04;;;;;;;;;;;;;;;-0.38;75.53;102083.25;4876369;29;19912;-78
2022/03/05 08:34:32;;;;;;;;;;;;;;;-0.32;75.85;102092.50;4871188;29;19915;-78
2022/03/05 08:36:57;;;;;;;;;;;;;;;-0.23;75.66;102092.38;4859346;29;20014;-77
2022/03/05 08:39:22;;;;;;;;;;;;;;;-0.17;75.56;102084.63;4870338;29;20412;-80
2022/03/05 08:41:47;;;;;;;;;;;;;;;-0.10;75.25;102088.75;4861470;29;20421;-77
2022/03/05 08:44:13;;;;;;;;;;;;;;;-0.02;75.51;102096.25;4858615;29;19920;-78
2022/03/05 08:46:39;;;;;;;;;;;;;;;0.05;75.54;102096.97;4869536;29;20483;-78
2022/03/05 08:49:04;;;;;;;;;;;;;;;0.14;75.00;102096.84;4860951;29;19916;-77
2022/03/05 08:51:29;;;;;;;;;;;;;;;0.21;74.64;102085.63;4865428;29;19977;-78
2022/03/05 08:53:54;;;;;;;;;;;;;;;0.30;74.65;102088.03;4866466;29;19962;-78
2022/03/05 08:56:21;;;;;;;;;;;;;;;0.36;74.30;102077.72;4861415;29;19911;-78
2022/03/05 08:58:46;;;;;;;;;;;;;;;0.41;74.42;102081.03;4861729;29;19924;-79
2022/03/05 09:01:12;;;;;;;;;;;;;;;0.47;74.31;102080.06;4865190;29;19916;-78
2022/03/05 09:03:37;;;;;;;;;;;;;;;0.53;73.95;102075.66;4876217;29;19915;-79
2022/03/05 09:06:02;;;;;;;;;;;;;;;0.60;74.33;102085.75;4876302;29;19923;-78
2022/03/05 09:08:27;;;;;;;;;;;;;;;0.67;73.70;102082.19;4866911;29;19955;-78
2022/03/05 09:10:52;;;;;;;;;;;;;;;0.72;73.57;102082.94;4873896;29;19927;-78
2022/03/05 09:13:18;;;;;;;;;;;;;;;0.80;73.91;102078.50;4875684;29;19984;-78
2022/03/05 09:15:43;;;;;;;;;;;;;;;0.89;73.67;102073.22;4875357;29;20364;-78
2022/03/05 09:18:08;;;;;;;;;;;;;;;0.98;73.95;102083.25;4875682;29;19919;-79
2022/03/05 09:20:33;;;;;;;;;;;;;;;1.05;73.51;102079.69;4858246;29;19920;-78
2022/03/05 09:22:59;;;;;;;;;;;;;;;1.15;73.41;102077.78;4875791;29;20045;-78
2022/03/05 09:25:24;;;;;;;;;;;;;;;1.23;73.08;102073.31;4857314;29;19944;-79
2022/03/05 09:27:50;;;;;;;;;;;;;;;1.30;72.79;102066.34;4866282;29;19920;-78
2022/03/05 09:30:15;;;;;;;;;;;;;;;1.37;73.35;102065.34;4864033;29;19938;-78
2022/03/05 09:32:40;;;;;;;;;;;;;;;1.46;72.78;102080.47;4868901;29;20284;-79
2022/03/05 09:35:06;;;;;;;;;;;;;;;1.54;72.39;102073.44;4858040;29;19916;-78
2022/03/05 09:37:33;;;;;;;;;;;;;;;1.60;72.88;102068.19;4865354;29;20389;-80
2022/03/05 09:39:58;;;;;;;;;;;;;;;1.69;72.99;102063.72;4860954;29;20128;-80
2022/03/05 09:42:24;;;;;;;;;;;;;;;1.76;72.81;102067.81;4878995;29;19922;-77
2022/03/05 09:44:49;;;;;;;;;;;;;;;1.87;71.80;102078.63;4879272;29;20599;-78
2022/03/05 09:47:15;;;;;;;;;;;;;;;1.87;71.14;102070.94;4862262;29;19959;-79
2022/03/05 09:49:40;;;;;;;;;;;;;;;1.91;71.57;102067.44;4878449;29;19919;-79
2022/03/05 09:52:06;;;;;;;;;;;;;;;1.99;72.15;102075.75;4879052;29;20295;-78
2022/03/05 09:54:32;;;;;;;;;;;;;;;2.06;71.39;102072.13;4858998;29;19916;-78
2022/03/05 09:56:57;;;;;;;;;;;;;;;2.14;71.46;102079.63;4872417;29;19915;-78
2022/03/05 09:59:22;;;;;;;;;;;;;;;2.18;71.76;102081.25;4862916;29;19924;-78
2022/03/05 10:01:47;;;;;;;;;;;;;;;2.23;71.17;102078.53;4869940;29;19971;-78
2022/03/05 10:04:19;;;;;;;;;;;;;;;2.32;70.89;102073.19;4878660;29;20288;-78
2022/03/05 10:06:45;;;;;;;;;;;;;;;2.40;70.67;102076.34;4878017;29;19935;-78
2022/03/05 10:09:22;;;;;;;;;;;;;;;2.47;71.28;102072.78;4861167;29;19920;-78
2022/03/05 10:11:47;;;;;;;;;;;;;;;2.58;70.70;102077.56;4878454;29;19975;-78
2022/03/05 10:14:16;;;;;;;;;;;;;;;2.64;70.57;102080.81;4883499;29;20368;-79
2022/03/05 10:16:42;;;;;;;;;;;;;;;2.71;69.78;102080.66;4897120;29;20009;-78
2022/03/05 10:19:16;;;;;;;;;;;;;;;2.74;69.31;102080.53;4886095;29;20003;-78
2022/03/05 10:21:54;;;;;;;;;;;;;;;2.76;69.07;102074.50;4861939;29;19962;-78
2022/03/05 10:24:28;;;;;;;;;;;;;;;2.84;70.08;102076.84;4878692;29;19912;-78
2022/03/05 10:26:55;;;;;;;;;;;;;;;2.94;70.07;102080.81;4878801;29;19924;-78
2022/03/05 10:29:24;;;;;;;;;;;;;;;3.03;68.60;102077.13;4878582;29;19980;-78
2022/03/05 10:31:57;;;;;;;;;;;;;;;3.07;69.34;102079.56;4877136;29;19915;-79
2022/03/05 10:34:22;;;;;;;;;;;;;;;3.11;69.38;102081.16;4897088;29;19919;-78
2022/03/05 10:36:59;;;;;;;;;;;;;;;3.18;69.30;102082.63;4897187;29;19916;-79
2022/03/05 10:39:26;;;;;;;;;;;;;;;3.24;68.26;102085.88;4895884;29;20324;-78
2022/03/05 10:41:52;;;;;;;;;;;;;;;3.28;67.34;102082.34;4892798;29;19911;-79
2022/03/05 10:44:18;;;;;;;;;;;;;;;3.29;68.30;102084.03;4877890;29;19920;-78
2022/03/05 10:46:47;;;;;;;;;;;;;;;3.34;68.53;102077.03;4877937;29;19970;-78
2022/03/05 10:49:16;;;;;;;;;;;;;;;3.42;67.16;102075.06;4859744;29;20238;-78
2022/03/05 10:51:44;;;;;;;;;;;;;;;3.49;66.69;102084.22;4860434;29;19919;-78
2022/03/05 10:54:09;;;;;;;;;;;;;;;3.57;67.38;102082.28;4878225;29;19919;-78
2022/03/05 10:56:35;;;;;;;;;;;;;;;3.64;67.17;102086.31;4877518;29;19919;-78
2022/03/05 10:59:03;;;;;;;;;;;;;;;3.68;65.96;102087.91;4877922;29;19911;-78
2022/03/05 11:01:29;;;;;;;;;;;;;;;3.70;65.83;102075.84;4878239;29;19919;-78
2022/03/05 11:03:54;;;;;;;;;;;;;;;3.79;67.04;102079.00;4877533;29;19920;-78
2022/03/05 11:06:20;;;;;;;;;;;;;;;3.89;66.98;102085.50;4877689;29;19923;-79
2022/03/05 11:08:46;;;;;;;;;;;;;;;3.96;65.70;102074.16;4877435;29;19927;-79
2022/03/05 11:11:13;;;;;;;;;;;;;;;4.03;65.68;102073.03;4877850;29;19923;-78
2022/03/05 11:13:38;;;;;;;;;;;;;;;4.10;66.79;102074.50;4876711;29;19942;-78
2022/03/05 11:16:04;;;;;;;;;;;;;;;4.22;66.09;102079.22;4860662;29;20373;-78
2022/03/05 11:18:32;;;;;;;;;;;;;;;4.29;66.04;102073.84;4877198;29;20288;-78
2022/03/05 11:20:57;;;;;;;;;;;;;;;4.36;66.02;102065.03;4877618;29;20433;-79
2022/03/05 11:23:23;;;;;;;;;;;;;;;4.42;65.49;102069.97;4877091;29;20285;-78
2022/03/05 11:25:52;;;;;;;;;;;;;;;4.50;65.86;102067.97;4877545;29;19916;-78
2022/03/05 11:28:18;;;;;;;;;;;;;;;4.61;65.80;102065.84;4877033;29;19976;-78
2022/03/05 11:30:45;;;;;;;;;;;;;;;4.73;65.65;102065.38;4860058;29;19923;-78
2022/03/05 11:33:20;;;;;;;;;;;;;;;4.79;64.19;102070.28;4877170;29;19915;-78
2022/03/05 11:35:45;;;;;;;;;;;;;;;4.82;64.34;102068.50;4877119;29;19967;-78
2022/03/05 11:38:29;;;;;;;;;;;;;;;4.87;64.39;102064.00;4877178;29;20318;-78
2022/03/05 11:40:54;;;;;;;;;;;;;;;4.89;62.98;102064.81;4877033;29;19916;-78
2022/03/05 11:43:21;;;;;;;;;;;;;;;4.92;64.05;102064.69;4876784;29;19963;-78
2022/03/05 11:45:47;;;;;;;;;;;;;;;4.94;62.56;102062.91;4876843;29;19923;-79
2022/03/05 11:48:32;;;;;;;;;;;;;;;5.00;64.55;102070.38;4876526;29;20435;-79
2022/03/05 11:50:59;;;;;;;;;;;;;;;5.09;63.89;102067.44;4876953;29;20273;-79
2022/03/05 11:53:25;;;;;;;;;;;;;;;5.17;63.59;102060.28;4876892;29;19920;-79
2022/03/05 11:55:50;;;;;;;;;;;;;;;5.24;64.19;102055.72;4877176;29;19923;-78
2022/03/05 11:58:17;;;;;;;;;;;;;;;5.25;63.49;102055.66;4876079;29;20431;-78
2022/03/05 12:00:45;;;;;;;;;;;;;;;5.29;63.88;102059.81;4876789;29;19919;-80
2022/03/05 12:03:20;;;;;;;;;;;;;;;5.36;64.45;102054.41;4876553;29;19915;-78
2022/03/05 12:05:46;;;;;;;;;;;;;;;5.39;62.40;102054.28;4876600;29;19960;-78
2022/03/05 12:08:32;;;;;;;;;;;;;;;5.47;63.73;102054.81;4876289;29;19966;-78
2022/03/05 12:11:06;;;;;;;;;;;;;;;5.49;63.55;102048.69;4876427;29;20301;-78
2022/03/05 12:13:32;;;;;;;;;;;;;;;5.51;62.57;102053.81;4876252;29;19920;-78
2022/03/05 12:15:57;;;;;;;;;;;;;;;5.60;63.36;102048.25;4856748;29;19918;-79
2022/03/05 12:18:22;;;;;;;;;;;;;;;5.63;63.77;102048.16;4848929;29;19923;-79
2022/03/05 12:20:47;;;;;;;;;;;;;;;5.62;62.91;102046.47;4894910;29;20376;-78
2022/03/05 12:23:16;;;;;;;;;;;;;;;5.63;62.92;102048.16;4895370;29;19966;-78
2022/03/05 12:25:44;;;;;;;;;;;;;;;5.69;62.48;102047.91;4894505;29;19915;-79
2022/03/05 12:28:18;;;;;;;;;;;;;;;5.74;61.33;102051.13;4895185;29;19911;-79
2022/03/05 12:30:43;;;;;;;;;;;;;;;5.81;62.68;102042.22;4876250;29;19927;-78
2022/03/05 12:33:10;;;;;;;;;;;;;;;5.90;62.95;102046.13;4876498;29;19915;-79
2022/03/05 12:35:35;;;;;;;;;;;;;;;5.93;62.70;102042.66;4876594;29;19915;-78